createdAt,value
2022-10-08T00:01:16.548Z,67.68
2022-10-08T00:04:03.432Z,69.05
2022-10-08T00:06:32.061Z,70.06
2022-10-08T00:09:02.396Z,70.77
2022-10-08T00:11:32.659Z,71.07
2022-10-08T00:14:02.091Z,70.22
2022-10-08T00:16:32.079Z,68.96
2022-10-08T00:19:01.972Z,68.01
2022-10-08T00:21:32.684Z,68.21
2022-10-08T00:24:04.249Z,67.70
2022-10-08T00:26:33.562Z,69.09
2022-10-08T00:29:03.506Z,69.12
2022-10-08T00:31:33.969Z,69.69
2022-10-08T00:34:05.834Z,69.67
2022-10-08T00:36:35.078Z,70.28
2022-10-08T00:39:06.173Z,71.02
2022-10-08T00:41:36.239Z,71.17
2022-10-08T00:44:39.634Z,70.44
2022-10-08T00:47:25.881Z,70.40
2022-10-08T00:49:58.238Z,69.21
2022-10-08T00:52:27.437Z,69.80
2022-10-08T00:54:55.165Z,71.74
2022-10-08T00:57:22.944Z,71.88
2022-10-08T00:59:50.278Z,71.77
2022-10-08T01:02:19.378Z,70.94
2022-10-08T01:04:47.823Z,70.90
2022-10-08T01:07:59.658Z,71.34
2022-10-08T01:10:41.005Z,71.75
2022-10-08T01:13:11.295Z,71.64
2022-10-08T01:16:11.743Z,71.07
2022-10-08T01:19:03.056Z,70.99
2022-10-08T01:21:43.390Z,70.59
2022-10-08T01:24:17.614Z,71.80
2022-10-08T01:26:57.740Z,71.09
2022-10-08T01:29:32.044Z,71.57
2022-10-08T01:32:03.860Z,70.92
2022-10-08T01:34:39.935Z,71.81
2022-10-08T01:37:14.472Z,72.02
2022-10-08T01:39:44.021Z,72.42
2022-10-08T01:42:11.950Z,72.58
2022-10-08T01:44:48.996Z,72.49
2022-10-08T01:47:19.372Z,71.23
2022-10-08T01:49:56.499Z,72.20
2022-10-08T01:52:27.263Z,71.01
2022-10-08T01:54:59.029Z,71.88
2022-10-08T01:57:28.334Z,70.94
2022-10-08T02:00:01.509Z,71.07
2022-10-08T02:02:29.507Z,72.22
2022-10-08T02:04:57.212Z,71.57
2022-10-08T02:07:30.911Z,72.25
2022-10-08T02:10:19.851Z,73.06
2022-10-08T02:12:47.330Z,71.60
2022-10-08T02:15:19.084Z,72.01
2022-10-08T02:18:08.868Z,71.30
2022-10-08T02:20:44.533Z,70.88
2022-10-08T02:23:22.552Z,71.77
2022-10-08T02:25:53.894Z,70.27
2022-10-08T02:28:23.482Z,71.01
2022-10-08T02:30:55.098Z,71.02
2022-10-08T02:33:50.454Z,70.89
2022-10-08T02:36:19.622Z,72.47
2022-10-08T02:38:55.254Z,71.20
2022-10-08T02:41:26.510Z,72.64
2022-10-08T02:43:55.687Z,72.20
2022-10-08T02:46:25.498Z,71.17
2022-10-08T02:49:15.979Z,72.05
2022-10-08T02:51:49.284Z,71.99
2022-10-08T02:54:19.280Z,72.36
2022-10-08T02:56:54.796Z,72.05
2022-10-08T02:59:22.735Z,71.12
2022-10-08T03:02:00.010Z,71.97
2022-10-08T03:04:30.718Z,71.07
2022-10-08T03:06:59.348Z,71.07
2022-10-08T03:09:31.737Z,71.52
2022-10-08T03:12:00.239Z,71.11
2022-10-08T03:14:28.035Z,72.23
2022-10-08T03:16:55.413Z,72.93
2022-10-08T03:19:23.106Z,71.15
2022-10-08T03:21:53.572Z,72.02
2022-10-08T03:24:20.989Z,72.25
2022-10-08T03:26:48.711Z,72.45
2022-10-08T03:29:16.056Z,73.19
2022-10-08T03:31:43.396Z,72.46
2022-10-08T03:34:10.968Z,71.06
2022-10-08T03:36:38.287Z,70.38
2022-10-08T03:39:05.944Z,70.33
2022-10-08T03:41:33.583Z,71.61
2022-10-08T03:44:00.964Z,71.37
2022-10-08T03:46:28.390Z,70.98
2022-10-08T03:48:56.062Z,71.61
2022-10-08T03:51:23.932Z,71.41
2022-10-08T03:53:51.308Z,70.86
2022-10-08T03:56:21.606Z,70.13
2022-10-08T03:58:55.900Z,71.54
2022-10-08T04:01:24.298Z,71.81
2022-10-08T04:03:52.345Z,70.58
2022-10-08T04:06:19.819Z,71.84
2022-10-08T04:08:47.154Z,71.99
2022-10-08T04:11:16.597Z,72.14
2022-10-08T04:13:44.316Z,72.29
2022-10-08T04:16:16.812Z,70.62
2022-10-08T04:18:45.154Z,70.13
2022-10-08T04:21:15.256Z,69.85
2022-10-08T04:23:43.647Z,69.10
2022-10-08T04:26:12.888Z,69.93
2022-10-08T04:28:41.763Z,71.49
2022-10-08T04:31:21.597Z,71.14
2022-10-08T04:33:50.757Z,70.82
2022-10-08T04:36:22.803Z,69.81
2022-10-08T04:38:50.781Z,70.04
2022-10-08T04:41:26.190Z,71.35
2022-10-08T04:43:54.806Z,71.74
2022-10-08T04:46:22.753Z,70.68
2022-10-08T04:48:51.882Z,71.81
2022-10-08T04:51:20.078Z,72.08
2022-10-08T04:53:47.410Z,71.15
2022-10-08T04:56:20.218Z,71.19
2022-10-08T04:58:48.285Z,71.28
2022-10-08T05:01:17.681Z,71.23
2022-10-08T05:03:50.218Z,73.20
2022-10-08T05:06:19.940Z,73.22
2022-10-08T05:08:47.476Z,73.59
2022-10-08T05:11:15.619Z,73.78
2022-10-08T05:13:43.741Z,72.52
2022-10-08T05:16:13.227Z,73.03
2022-10-08T05:18:41.947Z,72.75
2022-10-08T05:21:18.936Z,73.94
2022-10-08T05:23:46.483Z,74.10
2022-10-08T05:26:17.661Z,73.59
2022-10-08T05:28:47.217Z,74.55
2022-10-08T05:31:17.972Z,75.66
2022-10-08T05:33:45.506Z,75.44
2022-10-08T05:36:17.444Z,76.66
2022-10-08T05:38:45.277Z,77.57
2022-10-08T05:41:21.000Z,75.67
2022-10-08T05:43:49.055Z,75.24
2022-10-08T05:46:17.271Z,75.41
2022-10-08T05:48:45.020Z,75.75
2022-10-08T05:51:15.303Z,77.06
2022-10-08T05:53:47.677Z,77.13
2022-10-08T05:56:17.976Z,77.41
2022-10-08T05:58:45.746Z,79.07
2022-10-08T06:01:15.080Z,80.44
2022-10-08T06:03:43.465Z,79.63
2022-10-08T06:06:11.900Z,77.43
2022-10-08T06:08:39.260Z,75.18
2022-10-08T06:11:07.279Z,71.60
2022-10-08T06:13:34.807Z,70.41
2022-10-08T06:16:05.078Z,70.11
2022-10-08T06:18:35.479Z,68.71
2022-10-08T06:21:07.989Z,67.76
2022-10-08T06:23:36.463Z,66.84
2022-10-08T06:26:08.124Z,65.88
2022-10-08T06:28:37.414Z,65.72
2022-10-08T06:31:05.409Z,64.87
2022-10-08T06:33:32.804Z,64.36
2022-10-08T06:36:14.142Z,65.39
2022-10-08T06:38:41.683Z,63.36
2022-10-08T06:41:09.284Z,64.93
2022-10-08T06:43:36.626Z,63.06
2022-10-08T06:46:05.477Z,62.29
2022-10-08T06:48:33.591Z,63.31
2022-10-08T06:51:06.669Z,63.83
2022-10-08T06:53:34.853Z,63.22
2022-10-08T06:56:04.323Z,63.24
2022-10-08T06:58:31.684Z,65.58
2022-10-08T07:01:02.412Z,66.04
2022-10-08T07:03:30.258Z,65.77
2022-10-08T07:06:00.834Z,66.25
2022-10-08T07:08:29.304Z,65.00
2022-10-08T07:11:03.956Z,64.02
2022-10-08T07:13:31.563Z,64.69
2022-10-08T07:16:03.832Z,66.41
2022-10-08T07:18:31.961Z,67.77
2022-10-08T07:20:59.642Z,66.36
2022-10-08T07:23:27.445Z,65.16
2022-10-08T07:26:06.066Z,65.82
2022-10-08T07:28:35.771Z,67.53
2022-10-08T07:31:28.378Z,65.61
2022-10-08T07:33:59.797Z,63.78
2022-10-08T07:36:28.606Z,65.60
2022-10-08T07:38:57.798Z,63.68
2022-10-08T07:41:25.982Z,61.02
2022-10-08T07:43:55.173Z,60.46
2022-10-08T07:46:22.819Z,60.07
2022-10-08T07:48:51.028Z,60.38
2022-10-08T07:51:19.554Z,59.23
2022-10-08T07:53:47.506Z,60.59
2022-10-08T07:56:17.275Z,59.06
2022-10-08T07:58:45.063Z,61.36
2022-10-08T08:01:15.933Z,62.16
2022-10-08T08:03:44.051Z,63.12
2022-10-08T08:06:16.498Z,62.11
2022-10-08T08:08:45.853Z,61.64
2022-10-08T08:11:16.624Z,60.10
2022-10-08T08:13:44.236Z,59.32
2022-10-08T08:16:14.312Z,61.47
2022-10-08T08:18:44.075Z,62.45
2022-10-08T08:21:14.255Z,61.83
2022-10-08T08:23:44.088Z,64.29
2022-10-08T08:26:14.232Z,64.26
2022-10-08T08:28:41.833Z,63.51
2022-10-08T08:31:14.195Z,62.23
2022-10-08T08:33:42.495Z,59.28
2022-10-08T08:36:10.144Z,58.32
2022-10-08T08:38:37.936Z,58.05
2022-10-08T08:41:31.031Z,60.05
2022-10-08T08:44:02.867Z,59.85
2022-10-08T08:46:33.375Z,58.89
2022-10-08T08:49:05.575Z,61.97
2022-10-08T08:51:34.575Z,59.25
2022-10-08T08:54:02.627Z,60.84
2022-10-08T08:56:30.981Z,58.56
2022-10-08T08:59:12.540Z,61.13
2022-10-08T09:01:44.523Z,61.30
2022-10-08T09:04:16.879Z,59.31
2022-10-08T09:06:44.683Z,58.59
2022-10-08T09:09:25.998Z,57.85
2022-10-08T09:11:54.323Z,58.02
2022-10-08T09:14:35.228Z,57.03
2022-10-08T09:17:13.309Z,60.14
2022-10-08T09:19:41.233Z,58.60
2022-10-08T09:22:22.250Z,58.96
2022-10-08T09:25:05.862Z,56.97
2022-10-08T09:27:53.340Z,55.36
2022-10-08T09:30:38.692Z,56.53
2022-10-08T09:33:12.445Z,55.24
2022-10-08T09:35:44.077Z,56.99
2022-10-08T09:38:26.897Z,54.76
2022-10-08T09:41:06.824Z,53.64
2022-10-08T09:43:35.073Z,54.88
2022-10-08T09:46:28.192Z,54.01
2022-10-08T09:48:55.578Z,54.41
2022-10-08T09:51:23.381Z,52.94
2022-10-08T09:53:55.240Z,51.74
2022-10-08T09:56:28.538Z,51.50
2022-10-08T09:59:01.201Z,49.05
2022-10-08T10:01:31.491Z,50.40
2022-10-08T10:04:02.041Z,49.78
2022-10-08T10:06:38.901Z,47.76
2022-10-08T10:09:26.883Z,48.77
2022-10-08T10:12:16.524Z,49.37
2022-10-08T10:14:49.002Z,50.30
2022-10-08T10:17:25.058Z,47.91
2022-10-08T10:19:56.664Z,47.83
2022-10-08T10:22:30.349Z,47.62
2022-10-08T10:25:04.044Z,48.55
2022-10-08T10:27:35.038Z,46.38
2022-10-08T10:30:06.866Z,46.61
2022-10-08T10:32:39.305Z,46.17
2022-10-08T10:35:19.446Z,46.05
2022-10-08T10:37:54.489Z,45.17
2022-10-08T10:40:35.139Z,43.89
2022-10-08T10:43:20.733Z,45.19
2022-10-08T10:45:56.241Z,44.63
2022-10-08T10:48:23.680Z,44.43
2022-10-08T10:51:14.155Z,45.67
2022-10-08T10:54:00.190Z,42.85
2022-10-08T10:56:32.962Z,44.09
2022-10-08T10:59:19.300Z,42.74
2022-10-08T11:02:06.996Z,43.92
2022-10-08T11:04:39.291Z,41.41
2022-10-08T11:07:29.858Z,41.91
2022-10-08T11:10:08.286Z,41.89
2022-10-08T11:12:47.429Z,40.08
2022-10-08T11:15:17.801Z,41.35
2022-10-08T11:18:23.122Z,41.55
2022-10-08T11:20:59.764Z,40.31
2022-10-08T11:23:42.814Z,41.02
2022-10-08T11:26:28.340Z,40.58
2022-10-08T11:29:28.745Z,40.80
2022-10-08T11:31:56.554Z,39.81
2022-10-08T11:34:28.548Z,39.34
2022-10-08T11:37:14.132Z,40.46
2022-10-08T11:39:44.769Z,39.49
2022-10-08T11:42:26.086Z,39.22
2022-10-08T11:44:53.724Z,39.41
2022-10-08T11:47:47.865Z,39.60
2022-10-08T11:50:27.714Z,41.96
2022-10-08T11:52:57.932Z,41.00
2022-10-08T11:55:31.227Z,38.27
2022-10-08T11:58:09.211Z,38.26
2022-10-08T12:00:37.032Z,40.24
2022-10-08T12:03:07.522Z,40.81
2022-10-08T12:05:46.660Z,40.17
2022-10-08T12:08:59.306Z,42.16
2022-10-08T12:11:29.682Z,42.60
2022-10-08T12:14:12.574Z,42.13
2022-10-08T12:16:49.032Z,42.92
2022-10-08T12:19:35.475Z,42.77
2022-10-08T12:22:16.723Z,41.94
2022-10-08T12:24:49.963Z,39.66
2022-10-08T12:27:17.915Z,39.83
2022-10-08T12:29:58.903Z,41.49
2022-10-08T12:32:31.306Z,41.05
2022-10-08T12:34:59.862Z,42.46
2022-10-08T12:37:36.472Z,43.00
2022-10-08T12:40:13.196Z,40.57
2022-10-08T12:42:41.160Z,42.99
2022-10-08T12:45:08.678Z,41.81
2022-10-08T12:47:48.709Z,42.86
2022-10-08T12:50:41.030Z,42.54
2022-10-08T12:53:12.782Z,43.54
2022-10-08T12:55:49.618Z,44.60
2022-10-08T12:58:20.592Z,43.59
2022-10-08T13:00:55.480Z,43.53
2022-10-08T13:03:23.015Z,43.22
2022-10-08T13:05:50.760Z,43.59
2022-10-08T13:08:29.882Z,42.78
2022-10-08T13:10:59.384Z,45.04
2022-10-08T13:13:34.371Z,43.20
2022-10-08T13:16:03.116Z,44.17
2022-10-08T13:18:31.607Z,43.65
2022-10-08T13:21:05.355Z,45.03
2022-10-08T13:23:41.802Z,44.93
2022-10-08T13:26:44.969Z,45.65
2022-10-08T13:29:21.662Z,45.90
2022-10-08T13:32:03.771Z,46.30
2022-10-08T13:34:39.414Z,46.87
2022-10-08T13:37:39.213Z,47.39
2022-10-08T13:40:12.770Z,44.53
2022-10-08T13:42:42.195Z,45.36
2022-10-08T13:45:15.127Z,44.13
2022-10-08T13:47:42.697Z,45.36
2022-10-08T13:50:11.650Z,45.21
2022-10-08T13:52:44.167Z,45.91
2022-10-08T13:55:26.137Z,44.27
2022-10-08T13:57:54.606Z,45.25
2022-10-08T14:00:22.659Z,43.67
2022-10-08T14:02:51.787Z,44.02
2022-10-08T14:05:20.115Z,45.25
2022-10-08T14:07:49.996Z,46.04
2022-10-08T14:10:20.763Z,45.71
2022-10-08T14:12:48.077Z,47.24
2022-10-08T14:15:16.846Z,47.51
2022-10-08T14:17:44.729Z,45.21
2022-10-08T14:20:12.558Z,44.51
2022-10-08T14:22:39.894Z,45.38
2022-10-08T14:25:20.259Z,46.42
2022-10-08T14:27:47.930Z,46.67
2022-10-08T14:30:16.276Z,44.20
2022-10-08T14:32:44.279Z,45.41
2022-10-08T14:35:12.228Z,46.16
2022-10-08T14:37:39.841Z,45.93
2022-10-08T14:40:08.902Z,46.03
2022-10-08T14:42:36.271Z,46.48
2022-10-08T14:45:04.248Z,45.39
2022-10-08T14:47:31.653Z,46.45
2022-10-08T14:49:59.083Z,47.06
2022-10-08T14:52:26.720Z,46.67
2022-10-08T14:54:54.034Z,46.83
2022-10-08T14:57:21.475Z,47.81
2022-10-08T14:59:49.061Z,46.22
2022-10-08T15:02:16.452Z,46.80
2022-10-08T15:04:43.844Z,47.26
2022-10-08T15:07:11.428Z,48.51
2022-10-08T15:09:40.570Z,49.91
2022-10-08T15:12:08.346Z,49.80
2022-10-08T15:14:38.344Z,49.54
2022-10-08T15:17:05.934Z,48.77
2022-10-08T15:19:33.267Z,48.67
2022-10-08T15:22:00.886Z,48.89
2022-10-08T15:24:28.233Z,48.87
2022-10-08T15:26:55.575Z,48.20
2022-10-08T15:29:23.178Z,49.09
2022-10-08T15:31:51.249Z,49.34
2022-10-08T15:34:19.950Z,49.27
2022-10-08T15:36:47.707Z,51.38
2022-10-08T15:39:19.275Z,50.97
2022-10-08T15:41:48.773Z,52.48
2022-10-08T15:44:22.008Z,51.54
2022-10-08T15:46:54.877Z,52.37
2022-10-08T15:49:33.115Z,51.69
2022-10-08T15:52:00.986Z,52.23
2022-10-08T15:54:28.585Z,53.30
2022-10-08T15:56:55.946Z,53.67
2022-10-08T15:59:23.266Z,53.63
2022-10-08T16:01:50.851Z,54.93
2022-10-08T16:04:18.448Z,54.05
2022-10-08T16:06:46.639Z,55.36
2022-10-08T16:09:15.998Z,55.41
2022-10-08T16:11:45.114Z,55.60
2022-10-08T16:14:13.643Z,55.37
2022-10-08T16:16:41.514Z,56.01
2022-10-08T16:19:12.348Z,56.42
2022-10-08T16:21:39.924Z,56.45
2022-10-08T16:24:07.306Z,58.04
2022-10-08T16:26:35.595Z,58.82
2022-10-08T16:29:05.348Z,59.31
2022-10-08T16:31:34.421Z,58.98
2022-10-08T16:34:07.403Z,58.81
2022-10-08T16:36:36.655Z,59.53
2022-10-08T16:39:05.098Z,59.98
2022-10-08T16:41:33.759Z,58.53
2022-10-08T16:44:11.828Z,59.51
2022-10-08T16:46:43.142Z,59.45
2022-10-08T16:49:24.558Z,59.55
2022-10-08T16:52:04.528Z,59.26
2022-10-08T16:54:32.789Z,59.78
2022-10-08T16:57:00.537Z,59.72
2022-10-08T16:59:29.283Z,59.38
2022-10-08T17:01:58.382Z,59.43
2022-10-08T17:04:27.833Z,60.26
2022-10-08T17:06:55.691Z,59.98
2022-10-08T17:09:23.351Z,61.61
2022-10-08T17:11:51.109Z,61.59
2022-10-08T17:14:18.618Z,60.60
2022-10-08T17:16:46.246Z,61.38
2022-10-08T17:19:13.968Z,61.01
2022-10-08T17:21:41.418Z,61.82
2022-10-08T17:24:13.575Z,61.69
2022-10-08T17:26:42.306Z,62.85
2022-10-08T17:29:12.136Z,63.32
2022-10-08T17:31:39.801Z,62.80
2022-10-08T17:34:08.434Z,62.86
2022-10-08T17:36:38.817Z,62.04
2022-10-08T17:39:10.361Z,61.99
2022-10-08T17:41:39.939Z,62.59
2022-10-08T17:44:08.761Z,64.58
2022-10-08T17:46:45.809Z,65.11
2022-10-08T17:49:15.276Z,63.87
2022-10-08T17:51:43.240Z,64.35
2022-10-08T17:54:13.711Z,64.42
2022-10-08T17:56:41.694Z,64.00
2022-10-08T17:59:09.495Z,63.82
2022-10-08T18:01:41.463Z,64.24
2022-10-08T18:04:14.562Z,64.17
2022-10-08T18:06:43.101Z,64.48
2022-10-08T18:09:16.004Z,65.12
2022-10-08T18:11:46.672Z,64.92
2022-10-08T18:14:14.143Z,64.20
2022-10-08T18:16:46.940Z,65.30
2022-10-08T18:19:16.649Z,65.48
2022-10-08T18:21:44.815Z,65.70
2022-10-08T18:24:12.371Z,66.11
2022-10-08T18:26:42.103Z,66.02
2022-10-08T18:29:12.504Z,65.79
2022-10-08T18:31:42.453Z,67.24
2022-10-08T18:34:13.416Z,66.68
2022-10-08T18:36:41.128Z,67.66
2022-10-08T18:39:12.715Z,66.35
2022-10-08T18:41:43.379Z,66.62
2022-10-08T18:44:14.350Z,65.79
2022-10-08T18:46:46.005Z,66.46
2022-10-08T18:49:15.561Z,66.52
2022-10-08T18:51:45.063Z,65.97
2022-10-08T18:54:14.834Z,66.04
2022-10-08T18:56:43.154Z,65.75
2022-10-08T18:59:15.234Z,66.81
2022-10-08T19:01:47.842Z,65.72
2022-10-08T19:04:17.779Z,65.69
2022-10-08T19:06:46.717Z,66.95
2022-10-08T19:09:15.299Z,66.99
2022-10-08T19:11:48.781Z,68.15
2022-10-08T19:14:18.754Z,66.91
2022-10-08T19:16:46.820Z,67.87
2022-10-08T19:19:16.501Z,68.01
2022-10-08T19:21:45.024Z,68.21
2022-10-08T19:24:24.399Z,66.16
2022-10-08T19:26:53.174Z,67.00
2022-10-08T19:29:26.169Z,68.43
2022-10-08T19:31:54.286Z,67.99
2022-10-08T19:34:32.875Z,69.55
2022-10-08T19:37:01.042Z,67.31
2022-10-08T19:39:34.192Z,67.01
2022-10-08T19:42:02.362Z,68.75
2022-10-08T19:44:30.373Z,67.47
2022-10-08T19:46:58.423Z,68.30
2022-10-08T19:49:26.503Z,67.54
2022-10-08T19:51:54.655Z,68.92
2022-10-08T19:54:22.162Z,69.27
2022-10-08T19:56:50.142Z,69.03
2022-10-08T19:59:18.380Z,67.75
2022-10-08T20:01:46.025Z,69.38
2022-10-08T20:04:14.181Z,69.11
2022-10-08T20:06:42.292Z,69.42
2022-10-08T20:09:12.169Z,69.57
2022-10-08T20:11:42.366Z,69.07
2022-10-08T20:14:10.485Z,69.41
2022-10-08T20:16:41.868Z,68.31
2022-10-08T20:19:19.248Z,68.55
2022-10-08T20:21:47.278Z,68.45
2022-10-08T20:24:15.323Z,70.20
2022-10-08T20:26:43.450Z,70.67
2022-10-08T20:29:13.475Z,68.60
2022-10-08T20:31:43.287Z,69.08
2022-10-08T20:34:13.187Z,69.62
2022-10-08T20:36:41.140Z,69.14
2022-10-08T20:39:08.497Z,69.25
2022-10-08T20:41:35.867Z,69.59
2022-10-08T20:44:04.382Z,69.09
2022-10-08T20:46:33.184Z,68.68
2022-10-08T20:49:00.828Z,70.20
2022-10-08T20:51:29.337Z,69.76
2022-10-08T20:54:01.838Z,69.35
2022-10-08T20:56:33.631Z,68.96
2022-10-08T20:59:03.370Z,68.49
2022-10-08T21:01:33.347Z,70.65
2022-10-08T21:04:01.149Z,68.60
2022-10-08T21:06:31.137Z,68.52
2022-10-08T21:08:59.376Z,68.44
2022-10-08T21:11:28.865Z,69.45
2022-10-08T21:13:57.316Z,69.92
2022-10-08T21:16:29.976Z,70.56
2022-10-08T21:18:59.361Z,71.87
2022-10-08T21:21:27.583Z,71.63
2022-10-08T21:23:55.676Z,71.27
2022-10-08T21:26:28.526Z,69.80
2022-10-08T21:28:58.678Z,71.09
2022-10-08T21:31:27.648Z,70.43
2022-10-08T21:33:55.257Z,71.73
2022-10-08T21:36:28.721Z,70.68
2022-10-08T21:38:56.531Z,71.14
2022-10-08T21:41:25.009Z,70.45
2022-10-08T21:43:54.630Z,70.67
2022-10-08T21:46:24.038Z,69.26
2022-10-08T21:48:59.508Z,70.10
2022-10-08T21:51:28.413Z,71.37
2022-10-08T21:53:57.718Z,72.36
2022-10-08T21:56:27.141Z,69.95
2022-10-08T21:58:56.563Z,69.11
2022-10-08T22:01:25.601Z,68.72
2022-10-08T22:03:58.223Z,69.44
2022-10-08T22:06:28.536Z,69.44
2022-10-08T22:08:56.542Z,69.44
2022-10-08T22:11:24.175Z,69.21
2022-10-08T22:13:51.816Z,69.48
2022-10-08T22:16:20.840Z,69.97
2022-10-08T22:18:48.462Z,70.27
2022-10-08T22:21:18.364Z,69.66
2022-10-08T22:23:46.680Z,69.79
2022-10-08T22:26:22.679Z,68.72
2022-10-08T22:28:51.112Z,68.52
2022-10-08T22:31:19.970Z,70.07
2022-10-08T22:33:47.614Z,70.32
2022-10-08T22:36:17.962Z,69.37
2022-10-08T22:38:46.214Z,70.95
2022-10-08T22:41:25.004Z,69.49
2022-10-08T22:43:52.766Z,69.53
2022-10-08T22:46:22.925Z,69.43
2022-10-08T22:48:50.753Z,69.37
2022-10-08T22:51:20.997Z,69.29
2022-10-08T22:53:49.053Z,69.33
2022-10-08T22:56:22.886Z,69.67
2022-10-08T22:58:50.622Z,69.26
2022-10-08T23:01:23.112Z,69.50
2022-10-08T23:03:51.123Z,71.02
2022-10-08T23:06:26.444Z,70.36
2022-10-08T23:09:02.816Z,69.60
2022-10-08T23:11:31.807Z,68.77
2022-10-08T23:14:00.326Z,68.88
2022-10-08T23:16:29.356Z,69.29
2022-10-08T23:19:09.205Z,71.00
2022-10-08T23:21:37.081Z,70.01
2022-10-08T23:24:05.271Z,69.95
2022-10-08T23:26:32.720Z,68.55
2022-10-08T23:29:00.721Z,69.40
2022-10-08T23:31:30.525Z,69.47
2022-10-08T23:33:58.625Z,71.16
2022-10-08T23:36:36.003Z,71.04
2022-10-08T23:39:04.849Z,70.27
2022-10-08T23:41:32.460Z,69.48
2022-10-08T23:43:59.984Z,69.28
2022-10-08T23:46:29.230Z,70.24
2022-10-08T23:48:57.975Z,71.63
2022-10-08T23:51:26.373Z,72.08
2022-10-08T23:53:54.195Z,72.13
2022-10-08T23:56:21.963Z,71.19
2022-10-08T23:58:49.508Z,71.39
